createdAt,value
2018-10-17T00:00:18.073Z,16.28
2018-10-17T00:05:01.068Z,16.47
2018-10-17T00:09:43.885Z,16.36
2018-10-17T00:14:27.925Z,16.43
2018-10-17T00:19:10.804Z,16.58
2018-10-17T00:23:54.844Z,16.51
2018-10-17T00:28:37.697Z,16.45
2018-10-17T00:33:20.552Z,16.42
2018-10-17T00:38:03.432Z,16.23
2018-10-17T00:42:46.337Z,16.23
2018-10-17T00:47:29.404Z,16.14
2018-10-17T00:52:12.314Z,16.26
2018-10-17T00:56:57.284Z,16.20
2018-10-17T01:01:40.264Z,16.21
2018-10-17T01:06:24.349Z,15.88
2018-10-17T01:11:07.607Z,16.29
2018-10-17T01:15:51.654Z,16.50
2018-10-17T01:20:34.563Z,16.38
2018-10-17T01:25:18.477Z,15.98
2018-10-17T01:30:01.328Z,15.27
2018-10-17T01:34:44.200Z,15.57
2018-10-17T01:39:27.058Z,16.33
2018-10-17T01:44:09.958Z,16.25
2018-10-17T01:48:52.850Z,16.32
2018-10-17T01:53:36.013Z,15.63
2018-10-17T01:58:18.913Z,15.56
2018-10-17T02:03:03.868Z,15.01
2018-10-17T02:07:46.742Z,15.23
2018-10-17T02:12:30.601Z,14.96
2018-10-17T02:17:13.539Z,15.60
2018-10-17T02:21:56.357Z,15.18
2018-10-17T02:26:40.276Z,15.23
2018-10-17T02:31:23.189Z,14.52
2018-10-17T02:36:09.673Z,14.50
2018-10-17T02:40:52.558Z,14.75
2018-10-17T02:45:37.446Z,14.18
2018-10-17T02:50:20.284Z,15.38
2018-10-17T02:55:03.324Z,14.52
2018-10-17T02:59:46.106Z,14.19
2018-10-17T03:04:29.248Z,14.47
2018-10-17T03:09:12.125Z,14.63
2018-10-17T03:13:55.023Z,14.43
2018-10-17T03:18:37.953Z,14.78
2018-10-17T03:23:21.107Z,15.04
2018-10-17T03:28:04.039Z,14.49
2018-10-17T03:32:50.635Z,14.80
2018-10-17T03:37:33.670Z,14.58
2018-10-17T03:42:17.634Z,15.12
2018-10-17T03:47:00.604Z,15.11
2018-10-17T03:51:43.463Z,14.93
2018-10-17T03:56:28.598Z,14.21
2018-10-17T04:01:11.493Z,14.13
2018-10-17T04:05:55.415Z,14.88
2018-10-17T04:10:38.682Z,15.03
2018-10-17T04:15:22.769Z,14.49
2018-10-17T04:20:05.833Z,14.35
2018-10-17T04:24:48.753Z,14.43
2018-10-17T04:29:43.753Z,15.04
2018-10-17T04:34:26.829Z,15.33
2018-10-17T04:39:11.123Z,14.60
2018-10-17T04:43:54.142Z,15.17
2018-10-17T04:48:37.130Z,15.44
2018-10-17T04:53:20.099Z,14.72
2018-10-17T04:58:03.497Z,14.32
2018-10-17T05:02:48.146Z,14.32
2018-10-17T05:07:31.036Z,14.72
2018-10-17T05:12:15.029Z,15.26
2018-10-17T05:16:58.123Z,15.64
2018-10-17T05:21:41.214Z,15.41
2018-10-17T05:26:24.083Z,15.76
2018-10-17T05:31:07.017Z,14.97
2018-10-17T05:35:50.908Z,14.23
2018-10-17T05:40:33.777Z,14.36
2018-10-17T05:45:16.709Z,14.49
2018-10-17T05:49:59.592Z,15.43
2018-10-17T05:54:42.698Z,15.52
2018-10-17T05:59:25.624Z,15.64
2018-10-17T06:04:09.184Z,15.10
2018-10-17T06:08:52.054Z,15.38
2018-10-17T06:13:35.005Z,15.13
2018-10-17T06:18:18.933Z,14.98
2018-10-17T06:23:01.845Z,14.83
2018-10-17T06:27:44.727Z,14.95
2018-10-17T06:32:27.907Z,15.19
2018-10-17T06:37:10.869Z,15.34
2018-10-17T06:41:53.825Z,15.61
2018-10-17T06:46:36.778Z,15.39
2018-10-17T06:51:19.700Z,15.38
2018-10-17T06:56:02.515Z,15.90
2018-10-17T07:00:45.396Z,14.72
2018-10-17T07:05:29.290Z,15.25
2018-10-17T07:10:12.156Z,15.25
2018-10-17T07:14:55.073Z,15.50
2018-10-17T07:19:37.988Z,15.67
2018-10-17T07:24:21.118Z,15.78
2018-10-17T07:29:04.049Z,15.96
2018-10-17T07:33:47.078Z,16.19
2018-10-17T07:38:29.920Z,16.28
2018-10-17T07:43:16.702Z,16.30
2018-10-17T07:47:59.595Z,16.60
2018-10-17T07:52:42.477Z,16.83
2018-10-17T07:57:25.335Z,17.17
2018-10-17T08:02:09.240Z,16.98
2018-10-17T08:06:52.103Z,17.03
2018-10-17T08:11:36.468Z,17.02
2018-10-17T08:16:19.335Z,17.19
2018-10-17T08:21:02.186Z,17.32
2018-10-17T08:25:47.232Z,17.41
2018-10-17T08:30:30.139Z,17.35
2018-10-17T08:35:14.112Z,17.54
2018-10-17T08:39:56.921Z,17.55
2018-10-17T08:44:40.820Z,17.63
2018-10-17T08:49:23.726Z,17.76
2018-10-17T08:54:06.626Z,17.73
2018-10-17T08:58:49.606Z,17.77
2018-10-17T09:03:32.645Z,17.78
2018-10-17T09:08:15.595Z,17.85
2018-10-17T09:12:59.540Z,17.87
2018-10-17T09:17:42.416Z,17.90
2018-10-17T09:22:25.741Z,18.01
2018-10-17T09:27:08.611Z,17.93
2018-10-17T09:31:51.730Z,18.19
2018-10-17T09:36:34.644Z,18.32
2018-10-17T09:41:17.739Z,18.08
2018-10-17T09:46:00.660Z,18.10
2018-10-17T09:50:43.530Z,17.81
2018-10-17T09:55:26.667Z,17.59
2018-10-17T10:01:12.387Z,17.46
2018-10-17T10:05:55.432Z,17.93
2018-10-17T10:10:38.310Z,17.67
2018-10-17T10:15:22.514Z,17.75
2018-10-17T10:20:05.603Z,17.69
2018-10-17T10:24:50.655Z,17.88
2018-10-17T10:29:33.490Z,17.87
2018-10-17T10:34:16.635Z,17.79
2018-10-17T10:39:01.370Z,17.73
2018-10-17T10:43:46.410Z,17.63
2018-10-17T10:48:29.537Z,17.54
2018-10-17T10:53:12.435Z,17.65
2018-10-17T10:57:56.243Z,17.93
2018-10-17T11:02:39.216Z,17.87
2018-10-17T11:07:22.114Z,17.96
2018-10-17T11:12:06.467Z,18.06
2018-10-17T11:16:49.348Z,17.69
2018-10-17T11:21:33.303Z,17.91
2018-10-17T11:27:45.635Z,18.05
2018-10-17T11:32:28.665Z,17.86
2018-10-17T11:37:11.561Z,18.19
2018-10-17T11:41:56.502Z,18.35
2018-10-17T11:46:39.383Z,18.05
2018-10-17T11:51:25.546Z,18.42
2018-10-17T11:56:08.573Z,18.28
2018-10-17T12:00:51.787Z,18.33
2018-10-17T12:05:35.050Z,18.50
2018-10-17T12:10:17.910Z,18.53
2018-10-17T12:15:08.692Z,18.98
2018-10-17T12:19:52.555Z,19.06
2018-10-17T12:24:38.650Z,19.28
2018-10-17T12:29:21.758Z,19.40
2018-10-17T12:34:06.253Z,19.57
2018-10-17T12:38:49.670Z,19.58
2018-10-17T12:43:32.833Z,19.64
2018-10-17T12:48:16.146Z,19.69
2018-10-17T12:52:59.454Z,19.82
2018-10-17T12:57:44.004Z,19.74
2018-10-17T13:02:27.155Z,19.77
2018-10-17T13:07:10.399Z,19.86
2018-10-17T13:11:59.304Z,19.80
2018-10-17T13:16:44.703Z,19.80
2018-10-17T13:21:28.894Z,19.77
2018-10-17T13:26:11.993Z,19.73
2018-10-17T13:30:56.418Z,19.77
2018-10-17T13:35:39.442Z,19.69
2018-10-17T13:40:23.008Z,19.63
2018-10-17T13:45:06.614Z,19.62
2018-10-17T13:49:49.630Z,19.61
2018-10-17T13:54:32.756Z,19.54
2018-10-17T13:59:15.780Z,19.50
2018-10-17T14:04:03.111Z,19.43
2018-10-17T14:08:46.111Z,19.40
2018-10-17T14:13:30.529Z,19.35
2018-10-17T14:18:13.530Z,19.31
2018-10-17T14:22:57.652Z,19.16
2018-10-17T14:27:40.745Z,19.20
2018-10-17T14:32:25.945Z,19.05
2018-10-17T14:37:08.970Z,19.13
2018-10-17T14:41:54.127Z,19.10
2018-10-17T14:46:37.094Z,18.98
2018-10-17T14:51:22.080Z,18.84
2018-10-17T14:56:06.081Z,19.03
2018-10-17T15:00:50.174Z,19.05
2018-10-17T15:05:33.204Z,19.04
2018-10-17T15:10:17.334Z,19.02
2018-10-17T15:15:00.417Z,18.93
2018-10-17T15:19:43.372Z,18.85
2018-10-17T15:24:26.277Z,18.86
2018-10-17T15:29:09.210Z,18.92
2018-10-17T15:33:52.384Z,18.92
2018-10-17T15:38:35.338Z,18.56
2018-10-17T15:43:21.752Z,18.83
2018-10-17T15:48:05.070Z,18.77
2018-10-17T15:52:49.067Z,18.77
2018-10-17T15:57:31.984Z,18.83
2018-10-17T16:02:16.034Z,18.72
2018-10-17T16:06:58.997Z,18.67
2018-10-17T16:11:46.229Z,18.67
2018-10-17T16:16:29.548Z,18.33
2018-10-17T16:21:14.339Z,18.00
2018-10-17T16:25:58.534Z,17.95
2018-10-17T16:30:45.865Z,18.16
2018-10-17T16:35:28.697Z,18.16
2018-10-17T16:40:12.643Z,18.48
2018-10-17T16:44:55.535Z,18.05
2018-10-17T16:49:38.477Z,17.98
2018-10-17T16:54:22.592Z,17.56
2018-10-17T16:59:05.523Z,17.82
2018-10-17T17:03:48.547Z,17.41
2018-10-17T17:08:31.431Z,17.22
2018-10-17T17:13:14.310Z,17.14
2018-10-17T17:17:57.393Z,17.11
2018-10-17T17:22:41.115Z,17.74
2018-10-17T17:27:24.027Z,17.93
2018-10-17T17:32:09.363Z,17.53
2018-10-17T17:36:52.250Z,16.90
2018-10-17T17:41:38.516Z,16.78
2018-10-17T17:46:21.461Z,17.50
2018-10-17T17:51:06.150Z,17.05
2018-10-17T17:55:51.515Z,16.99
2018-10-17T18:00:47.281Z,16.79
2018-10-17T18:05:34.439Z,16.67
2018-10-17T18:10:17.351Z,17.08
2018-10-17T18:15:00.262Z,17.40
2018-10-17T18:19:44.482Z,16.74
2018-10-17T18:24:28.192Z,17.19
2018-10-17T18:29:11.067Z,16.94
2018-10-17T18:33:55.134Z,16.63
2018-10-17T18:38:41.723Z,17.22
2018-10-17T18:43:25.218Z,17.24
2018-10-17T18:48:08.184Z,17.02
2018-10-17T18:52:51.262Z,16.45
2018-10-17T18:57:34.151Z,16.54
2018-10-17T19:02:18.272Z,16.87
2018-10-17T19:07:02.923Z,16.70
2018-10-17T19:11:47.882Z,16.62
2018-10-17T19:16:33.056Z,16.72
2018-10-17T19:21:17.995Z,17.08
2018-10-17T19:26:00.899Z,16.52
2018-10-17T19:30:44.771Z,17.13
2018-10-17T19:35:27.742Z,17.23
2018-10-17T19:40:11.478Z,17.19
2018-10-17T19:44:54.509Z,17.08
2018-10-17T19:49:38.667Z,17.13
2018-10-17T19:54:21.950Z,17.13
2018-10-17T19:59:05.296Z,17.35
2018-10-17T20:03:48.309Z,17.39
2018-10-17T20:08:31.212Z,17.40
2018-10-17T20:13:14.382Z,17.16
2018-10-17T20:17:57.622Z,16.65
2018-10-17T20:22:41.665Z,17.40
2018-10-17T20:27:24.528Z,17.64
2018-10-17T20:32:08.310Z,17.54
2018-10-17T20:36:51.157Z,17.44
2018-10-17T20:41:34.682Z,17.23
2018-10-17T20:46:17.614Z,17.32
2018-10-17T20:51:01.709Z,17.23
2018-10-17T20:55:44.561Z,17.40
2018-10-17T21:00:29.589Z,17.34
2018-10-17T21:05:12.512Z,17.17
2018-10-17T21:09:55.538Z,17.44
2018-10-17T21:14:38.414Z,17.40
2018-10-17T21:19:21.546Z,17.38
2018-10-17T21:24:04.880Z,17.27
2018-10-17T21:28:47.830Z,17.39
2018-10-17T21:33:30.857Z,17.19
2018-10-17T21:38:13.767Z,16.59
2018-10-17T21:42:56.786Z,16.49
2018-10-17T21:47:39.692Z,16.24
2018-10-17T21:52:22.754Z,16.44
2018-10-17T21:57:06.341Z,16.40
2018-10-17T22:01:49.301Z,16.18
2018-10-17T22:06:32.194Z,15.97
2018-10-17T22:11:15.158Z,16.00
2018-10-17T22:16:03.633Z,16.00
2018-10-17T22:20:46.716Z,15.88
2018-10-17T22:25:29.627Z,16.07
2018-10-17T22:30:12.724Z,16.06
2018-10-17T22:34:55.578Z,16.10
2018-10-17T22:39:38.506Z,16.43
2018-10-17T22:44:21.426Z,16.04
2018-10-17T22:49:04.967Z,16.80
2018-10-17T22:53:48.107Z,16.34
2018-10-17T22:58:30.938Z,16.63
2018-10-17T23:03:14.126Z,16.69
2018-10-17T23:07:56.987Z,16.13
2018-10-17T23:12:40.987Z,15.90
2018-10-17T23:17:23.850Z,15.91
2018-10-17T23:22:06.737Z,15.88
2018-10-17T23:26:49.666Z,15.78
2018-10-17T23:31:33.534Z,15.66
2018-10-17T23:36:16.409Z,15.65
2018-10-17T23:40:59.333Z,15.65
2018-10-17T23:45:42.191Z,15.59
2018-10-17T23:50:26.103Z,15.66
2018-10-17T23:55:09.430Z,15.67
2018-10-17T23:59:52.445Z,15.83
